createdAt,value
2023-03-04T00:00:49.997Z,8.50
2023-03-04T00:01:49.976Z,8.80
2023-03-04T00:02:49.994Z,8.40
2023-03-04T00:03:49.950Z,8.30
2023-03-04T00:04:49.929Z,8.00
2023-03-04T00:05:49.909Z,7.30
2023-03-04T00:06:49.898Z,8.50
2023-03-04T00:07:49.879Z,8.20
2023-03-04T00:08:49.911Z,7.80
2023-03-04T00:09:49.870Z,7.90
2023-03-04T00:10:49.851Z,9.10
2023-03-04T00:11:49.849Z,8.70
2023-03-04T00:12:49.840Z,8.70
2023-03-04T00:13:49.815Z,7.60
2023-03-04T00:14:49.834Z,8.00
2023-03-04T00:15:49.792Z,7.70
2023-03-04T00:16:49.785Z,8.50
2023-03-04T00:17:49.761Z,7.60
2023-03-04T00:18:49.779Z,7.90
2023-03-04T00:19:49.748Z,7.10
2023-03-04T00:20:49.781Z,8.10
2023-03-04T00:21:49.718Z,8.10
2023-03-04T00:22:49.709Z,7.80
2023-03-04T00:23:49.743Z,7.40
2023-03-04T00:24:49.696Z,7.30
2023-03-04T00:25:49.680Z,8.10
2023-03-04T00:26:49.704Z,7.80
2023-03-04T00:27:49.661Z,7.10
2023-03-04T00:28:49.646Z,7.90
2023-03-04T00:29:49.634Z,8.30
2023-03-04T00:30:49.611Z,8.20
2023-03-04T00:31:49.724Z,7.30
2023-03-04T00:32:49.608Z,7.40
2023-03-04T00:33:49.578Z,7.90
2023-03-04T00:34:49.580Z,8.20
2023-03-04T00:35:49.686Z,7.90
2023-03-04T00:36:49.541Z,7.50
2023-03-04T00:37:49.572Z,7.80
2023-03-04T00:38:49.531Z,8.50
2023-03-04T00:39:49.525Z,8.30
2023-03-04T00:40:49.513Z,7.40
2023-03-04T00:41:49.491Z,7.50
2023-03-04T00:42:49.514Z,7.90
2023-03-04T00:43:57.202Z,7.90
2023-03-04T00:44:49.452Z,7.00
2023-03-04T00:45:49.500Z,7.30
2023-03-04T00:46:49.459Z,7.90
2023-03-04T00:47:49.410Z,7.70
2023-03-04T00:48:49.463Z,7.20
2023-03-04T00:49:56.321Z,7.30
2023-03-04T00:50:49.415Z,7.60
2023-03-04T00:51:57.003Z,7.40
2023-03-04T00:52:49.398Z,7.30
2023-03-04T00:53:49.349Z,7.20
2023-03-04T00:54:58.989Z,8.00
2023-03-04T00:55:56.595Z,7.10
2023-03-04T00:56:49.324Z,6.50
2023-03-04T00:57:49.310Z,7.00
2023-03-04T00:58:49.301Z,7.40
2023-03-04T00:59:49.305Z,7.00
2023-03-04T01:00:49.322Z,6.80
2023-03-04T01:01:49.267Z,7.30
2023-03-04T01:02:49.354Z,7.30
2023-03-04T01:03:49.305Z,6.70
2023-03-04T01:04:49.227Z,7.00
2023-03-04T01:05:49.256Z,7.20
2023-03-04T01:06:49.246Z,7.50
2023-03-04T01:07:49.199Z,7.10
2023-03-04T01:08:49.175Z,6.80
2023-03-04T01:09:49.192Z,7.10
2023-03-04T01:10:49.166Z,7.30
2023-03-04T01:11:49.164Z,7.80
2023-03-04T01:12:49.155Z,7.20
2023-03-04T01:13:49.133Z,6.50
2023-03-04T01:14:49.137Z,6.30
2023-03-04T01:15:49.124Z,7.20
2023-03-04T01:16:49.138Z,7.30
2023-03-04T01:17:49.145Z,7.10
2023-03-04T01:18:49.095Z,7.20
2023-03-04T01:19:49.078Z,7.20
2023-03-04T01:20:49.094Z,7.60
2023-03-04T01:21:49.054Z,7.10
2023-03-04T01:22:49.023Z,7.30
2023-03-04T01:23:49.039Z,7.50
2023-03-04T01:24:48.996Z,7.30
2023-03-04T01:25:48.982Z,7.30
2023-03-04T01:26:48.982Z,7.00
2023-03-04T01:27:48.964Z,7.60
2023-03-04T01:28:48.997Z,8.20
2023-03-04T01:29:48.943Z,7.50
2023-03-04T01:30:48.946Z,7.20
2023-03-04T01:31:48.928Z,7.10
2023-03-04T01:32:48.911Z,7.10
2023-03-04T01:33:48.926Z,7.40
2023-03-04T01:34:48.904Z,8.00
2023-03-04T01:35:48.915Z,7.90
2023-03-04T01:36:48.868Z,8.30
2023-03-04T01:37:48.845Z,7.80
2023-03-04T01:38:48.845Z,7.20
2023-03-04T01:39:48.826Z,8.40
2023-03-04T01:40:48.851Z,8.70
2023-03-04T01:41:48.806Z,9.10
2023-03-04T01:42:48.826Z,7.80
2023-03-04T01:43:48.791Z,8.20
2023-03-04T01:44:48.776Z,7.50
2023-03-04T01:45:48.790Z,7.80
2023-03-04T01:46:48.783Z,8.10
2023-03-04T01:47:48.764Z,8.50
2023-03-04T01:48:48.834Z,8.90
2023-03-04T01:49:48.708Z,8.90
2023-03-04T01:50:48.711Z,9.20
2023-03-04T01:51:48.753Z,8.70
2023-03-04T01:52:48.683Z,8.60
2023-03-04T01:53:48.686Z,8.10
2023-03-04T01:54:48.672Z,7.80
2023-03-04T01:55:48.663Z,7.70
2023-03-04T01:56:48.642Z,8.00
2023-03-04T01:57:48.685Z,8.90
2023-03-04T01:58:48.620Z,8.30
2023-03-04T01:59:48.609Z,8.20
2023-03-04T02:00:48.603Z,8.50
2023-03-04T02:01:48.656Z,8.70
2023-03-04T02:02:48.570Z,8.20
2023-03-04T02:03:48.618Z,8.40
2023-03-04T02:04:48.553Z,8.30
2023-03-04T02:05:48.551Z,8.20
2023-03-04T02:06:48.558Z,8.60
2023-03-04T02:07:48.522Z,8.50
2023-03-04T02:08:48.510Z,8.30
2023-03-04T02:09:48.525Z,8.50
2023-03-04T02:10:48.494Z,8.60
2023-03-04T02:11:48.484Z,8.70
2023-03-04T02:12:48.527Z,8.50
2023-03-04T02:13:48.488Z,8.80
2023-03-04T02:14:48.435Z,8.80
2023-03-04T02:15:48.522Z,8.30
2023-03-04T02:16:48.422Z,8.10
2023-03-04T02:17:48.424Z,8.10
2023-03-04T02:18:48.391Z,8.90
2023-03-04T02:19:48.573Z,8.60
2023-03-04T02:20:48.385Z,8.50
2023-03-04T02:21:48.403Z,8.80
2023-03-04T02:22:48.374Z,8.80
2023-03-04T02:23:48.360Z,9.20
2023-03-04T02:24:48.398Z,8.30
2023-03-04T02:25:48.346Z,8.20
2023-03-04T02:26:48.395Z,8.60
2023-03-04T02:27:48.345Z,8.90
2023-03-04T02:28:48.306Z,8.40
2023-03-04T02:29:48.274Z,8.40
2023-03-04T02:30:48.286Z,8.40
2023-03-04T02:31:48.251Z,9.00
2023-03-04T02:32:48.262Z,8.80
2023-03-04T02:33:48.260Z,7.90
2023-03-04T02:34:48.282Z,7.90
2023-03-04T02:35:48.299Z,8.60
2023-03-04T02:36:48.196Z,8.40
2023-03-04T02:37:48.187Z,8.80
2023-03-04T02:38:48.209Z,8.40
2023-03-04T02:39:48.215Z,9.20
2023-03-04T02:40:48.163Z,8.10
2023-03-04T02:41:48.148Z,8.30
2023-03-04T02:42:48.134Z,8.70
2023-03-04T02:43:48.181Z,7.90
2023-03-04T02:44:48.105Z,8.10
2023-03-04T02:45:48.131Z,8.30
2023-03-04T02:46:48.149Z,8.60
2023-03-04T02:47:48.076Z,9.00
2023-03-04T02:48:48.067Z,8.80
2023-03-04T02:49:48.090Z,8.50
2023-03-04T02:50:48.268Z,8.40
2023-03-04T02:51:48.096Z,8.60
2023-03-04T02:52:48.028Z,9.20
2023-03-04T02:53:48.017Z,8.90
2023-03-04T02:54:47.997Z,8.90
2023-03-04T02:55:48.006Z,8.70
2023-03-04T02:56:47.998Z,9.00
2023-03-04T02:57:47.981Z,9.00
2023-03-04T02:58:47.989Z,9.00
2023-03-04T02:59:47.939Z,9.00
2023-03-04T03:00:47.938Z,8.70
2023-03-04T03:01:47.963Z,8.90
2023-03-04T03:02:48.000Z,8.80
2023-03-04T03:03:47.891Z,8.70
2023-03-04T03:04:47.890Z,9.70
2023-03-04T03:05:47.882Z,9.30
2023-03-04T03:06:47.871Z,9.30
2023-03-04T03:07:47.854Z,8.70
2023-03-04T03:08:47.860Z,9.30
2023-03-04T03:09:47.846Z,8.70
2023-03-04T03:10:47.823Z,9.10
2023-03-04T03:11:47.808Z,8.70
2023-03-04T03:12:47.802Z,9.70
2023-03-04T03:13:47.785Z,9.70
2023-03-04T03:14:47.790Z,9.50
2023-03-04T03:15:50.009Z,9.50
2023-03-04T03:16:47.775Z,10.00
2023-03-04T03:17:47.740Z,9.50
2023-03-04T03:18:47.729Z,8.60
2023-03-04T03:19:47.713Z,8.60
2023-03-04T03:20:47.741Z,9.20
2023-03-04T03:21:47.687Z,8.30
2023-03-04T03:22:47.681Z,9.00
2023-03-04T03:23:47.673Z,8.90
2023-03-04T03:24:47.648Z,9.30
2023-03-04T03:25:47.682Z,8.80
2023-03-04T03:26:47.636Z,10.00
2023-03-04T03:27:47.616Z,9.60
2023-03-04T03:28:47.652Z,9.30
2023-03-04T03:29:47.607Z,9.60
2023-03-04T03:30:47.604Z,9.10
2023-03-04T03:31:47.655Z,8.50
2023-03-04T03:32:47.559Z,9.10
2023-03-04T03:33:47.573Z,9.40
2023-03-04T03:34:47.541Z,9.20
2023-03-04T03:35:47.590Z,9.20
2023-03-04T03:36:47.540Z,9.90
2023-03-04T03:37:47.533Z,9.40
2023-03-04T03:38:47.497Z,9.60
2023-03-04T03:39:47.477Z,9.30
2023-03-04T03:40:47.498Z,8.50
2023-03-04T03:41:47.457Z,9.60
2023-03-04T03:42:47.450Z,9.80
2023-03-04T03:43:47.492Z,8.90
2023-03-04T03:44:47.424Z,9.20
2023-03-04T03:45:47.447Z,10.00
2023-03-04T03:46:47.421Z,9.70
2023-03-04T03:47:47.423Z,10.00
2023-03-04T03:48:47.390Z,9.80
2023-03-04T03:49:47.437Z,10.00
2023-03-04T03:50:47.361Z,9.80
2023-03-04T03:51:47.356Z,9.70
2023-03-04T03:52:47.342Z,8.90
2023-03-04T03:53:47.325Z,9.90
2023-03-04T03:54:47.347Z,9.40
2023-03-04T03:55:47.344Z,10.00
2023-03-04T03:56:47.302Z,9.30
2023-03-04T03:57:47.377Z,10.40
2023-03-04T03:58:47.278Z,10.30
2023-03-04T03:59:47.257Z,10.00
2023-03-04T04:00:47.283Z,9.70
2023-03-04T04:01:47.293Z,10.80
2023-03-04T04:02:47.354Z,9.70
2023-03-04T04:03:47.211Z,9.80
2023-03-04T04:04:47.276Z,11.20
2023-03-04T04:05:47.226Z,10.50
2023-03-04T04:06:47.225Z,10.40
2023-03-04T04:07:47.162Z,10.70
2023-03-04T04:08:47.163Z,10.20
2023-03-04T04:09:47.166Z,11.50
2023-03-04T04:10:47.146Z,10.10
2023-03-04T04:11:47.127Z,11.20
2023-03-04T04:12:47.152Z,10.50
2023-03-04T04:13:47.104Z,10.50
2023-03-04T04:14:47.091Z,11.10
2023-03-04T04:15:47.107Z,11.20
2023-03-04T04:16:47.120Z,10.80
2023-03-04T04:17:47.053Z,11.80
2023-03-04T04:18:47.108Z,11.10
2023-03-04T04:19:47.043Z,11.10
2023-03-04T04:20:47.035Z,11.70
2023-03-04T04:21:47.061Z,10.70
2023-03-04T04:22:47.044Z,11.30
2023-03-04T04:23:47.022Z,10.40
2023-03-04T04:24:46.994Z,11.40
2023-03-04T04:25:46.987Z,11.30
2023-03-04T04:26:46.961Z,12.30
2023-03-04T04:27:46.982Z,11.50
2023-03-04T04:28:46.932Z,11.80
2023-03-04T04:29:46.970Z,11.40
2023-03-04T04:30:46.931Z,11.40
2023-03-04T04:31:46.893Z,11.40
2023-03-04T04:32:46.889Z,11.20
2023-03-04T04:33:46.881Z,11.80
2023-03-04T04:34:46.903Z,11.40
2023-03-04T04:35:46.922Z,11.50
2023-03-04T04:36:46.862Z,11.50
2023-03-04T04:37:46.845Z,11.30
2023-03-04T04:38:46.822Z,11.70
2023-03-04T04:39:46.884Z,11.90
2023-03-04T04:40:46.825Z,10.90
2023-03-04T04:41:46.789Z,11.30
2023-03-04T04:42:46.780Z,12.00
2023-03-04T04:43:46.760Z,11.10
2023-03-04T04:44:46.772Z,12.30
2023-03-04T04:45:46.786Z,12.40
2023-03-04T04:46:46.771Z,12.30
2023-03-04T04:47:46.721Z,11.00
2023-03-04T04:48:46.735Z,12.20
2023-03-04T04:49:46.699Z,12.00
2023-03-04T04:50:46.689Z,10.00
2023-03-04T04:51:46.663Z,11.60
2023-03-04T04:52:46.695Z,12.10
2023-03-04T04:53:46.661Z,11.20
2023-03-04T04:54:46.681Z,10.80
2023-03-04T04:55:46.653Z,10.90
2023-03-04T04:56:46.616Z,10.90
2023-03-04T04:57:46.651Z,12.00
2023-03-04T04:58:46.683Z,12.10
2023-03-04T04:59:46.593Z,10.90
2023-03-04T05:00:46.569Z,12.00
2023-03-04T05:01:46.668Z,11.50
2023-03-04T05:02:46.552Z,11.60
2023-03-04T05:03:46.640Z,11.30
2023-03-04T05:04:46.581Z,10.90
2023-03-04T05:05:46.517Z,11.60
2023-03-04T05:06:46.603Z,12.00
2023-03-04T05:07:46.508Z,11.90
2023-03-04T05:08:46.503Z,11.40
2023-03-04T05:09:46.490Z,12.20
2023-03-04T05:10:46.488Z,12.00
2023-03-04T05:11:46.561Z,11.90
2023-03-04T05:12:46.459Z,11.50
2023-03-04T05:13:46.486Z,12.10
2023-03-04T05:14:46.468Z,12.10
2023-03-04T05:15:46.491Z,11.40
2023-03-04T05:16:46.492Z,11.10
2023-03-04T05:17:46.451Z,11.00
2023-03-04T05:18:46.378Z,11.40
2023-03-04T05:19:46.420Z,10.90
2023-03-04T05:20:46.358Z,11.70
2023-03-04T05:21:46.398Z,11.80
2023-03-04T05:22:46.419Z,11.40
2023-03-04T05:23:46.340Z,11.70
2023-03-04T05:24:46.310Z,11.10
2023-03-04T05:25:46.312Z,12.30
2023-03-04T05:26:46.343Z,11.40
2023-03-04T05:27:46.364Z,11.30
2023-03-04T05:28:46.282Z,11.60
2023-03-04T05:29:46.267Z,10.80
2023-03-04T05:30:46.330Z,10.50
2023-03-04T05:31:46.273Z,10.80
2023-03-04T05:32:46.232Z,11.50
2023-03-04T05:33:46.244Z,10.50
2023-03-04T05:34:46.225Z,9.90
2023-03-04T05:35:46.380Z,11.00
2023-03-04T05:36:46.215Z,10.80
2023-03-04T05:37:46.218Z,9.90
2023-03-04T05:38:46.193Z,11.30
2023-03-04T05:39:46.188Z,11.80
2023-03-04T05:40:46.168Z,12.00
2023-03-04T05:41:46.163Z,11.00
2023-03-04T05:42:46.133Z,11.20
2023-03-04T05:43:46.572Z,11.80
2023-03-04T05:44:46.154Z,11.10
2023-03-04T05:45:46.083Z,10.90
2023-03-04T05:46:46.104Z,10.70
2023-03-04T05:47:46.077Z,11.80
2023-03-04T05:48:46.079Z,11.20
2023-03-04T05:49:46.048Z,10.60
2023-03-04T05:50:46.134Z,11.00
2023-03-04T05:51:46.064Z,10.90
2023-03-04T05:52:46.018Z,9.70
2023-03-04T05:53:46.005Z,11.00
2023-03-04T05:54:46.003Z,10.50
2023-03-04T05:55:45.994Z,10.40
2023-03-04T05:56:46.030Z,9.70
2023-03-04T05:57:45.980Z,9.70
2023-03-04T05:58:45.944Z,9.20
2023-03-04T05:59:45.938Z,10.10
2023-03-04T06:00:45.924Z,9.30
2023-03-04T06:01:45.948Z,10.40
2023-03-04T06:02:45.971Z,10.00
2023-03-04T06:03:45.936Z,10.70
2023-03-04T06:04:45.893Z,9.40
2023-03-04T06:05:45.876Z,9.80
2023-03-04T06:06:45.898Z,10.00
2023-03-04T06:07:45.891Z,9.80
2023-03-04T06:08:45.838Z,10.10
2023-03-04T06:09:45.838Z,9.50
2023-03-04T06:10:45.816Z,8.80
2023-03-04T06:11:45.825Z,9.50
2023-03-04T06:12:45.833Z,9.00
2023-03-04T06:13:45.812Z,8.80
2023-03-04T06:14:45.788Z,9.10
2023-03-04T06:15:45.867Z,8.10
2023-03-04T06:16:45.805Z,7.90
2023-03-04T06:17:45.769Z,8.50
2023-03-04T06:18:45.760Z,8.70
2023-03-04T06:19:45.720Z,7.90
2023-03-04T06:20:45.729Z,8.00
2023-03-04T06:21:45.696Z,8.60
2023-03-04T06:22:45.690Z,7.20
2023-03-04T06:23:45.676Z,7.90
2023-03-04T06:24:45.698Z,8.40
2023-03-04T06:25:45.665Z,8.30
2023-03-04T06:26:45.636Z,8.20
2023-03-04T06:27:45.668Z,8.20
2023-03-04T06:28:45.658Z,8.70
2023-03-04T06:29:45.609Z,8.20
2023-03-04T06:30:45.640Z,8.60
2023-03-04T06:31:45.607Z,8.40
2023-03-04T06:32:45.633Z,8.50
2023-03-04T06:33:45.564Z,7.80
2023-03-04T06:34:45.545Z,7.70
2023-03-04T06:35:45.590Z,7.40
2023-03-04T06:36:45.555Z,8.00
2023-03-04T06:37:45.521Z,7.80
2023-03-04T06:38:45.515Z,7.40
2023-03-04T06:39:45.487Z,7.50
2023-03-04T06:40:45.578Z,7.30
2023-03-04T06:41:45.521Z,6.90
2023-03-04T06:42:45.471Z,6.50
2023-03-04T06:43:45.447Z,7.20
2023-03-04T06:44:45.470Z,7.70
2023-03-04T06:45:45.436Z,7.20
2023-03-04T06:46:45.459Z,7.10
2023-03-04T06:47:45.453Z,7.50
2023-03-04T06:48:45.413Z,8.00
2023-03-04T06:49:45.490Z,6.80
2023-03-04T06:50:45.378Z,7.70
2023-03-04T06:51:45.356Z,6.70
2023-03-04T06:52:45.425Z,7.30
2023-03-04T06:53:45.338Z,7.20
2023-03-04T06:54:45.349Z,7.10
2023-03-04T06:55:45.327Z,7.00
2023-03-04T06:56:45.322Z,7.10
2023-03-04T06:57:48.158Z,7.00
2023-03-04T06:58:45.342Z,7.50
2023-03-04T06:59:45.319Z,6.40
2023-03-04T07:00:45.339Z,7.20
2023-03-04T07:01:45.266Z,6.80
2023-03-04T07:02:45.241Z,7.50
2023-03-04T07:03:45.322Z,6.50
2023-03-04T07:04:45.276Z,6.80
2023-03-04T07:05:45.230Z,6.30
2023-03-04T07:06:45.208Z,6.60
2023-03-04T07:07:45.194Z,7.40
2023-03-04T07:08:45.195Z,7.30
2023-03-04T07:09:45.186Z,7.10
2023-03-04T07:10:45.147Z,6.40
2023-03-04T07:11:45.148Z,7.40
2023-03-04T07:12:45.182Z,7.20
2023-03-04T07:13:45.148Z,7.10
2023-03-04T07:14:45.101Z,6.50
2023-03-04T07:15:45.205Z,6.80
2023-03-04T07:16:45.186Z,5.90
2023-03-04T07:17:45.090Z,6.90
2023-03-04T07:18:45.089Z,6.30
2023-03-04T07:19:45.059Z,6.10
2023-03-04T07:20:45.044Z,7.00
2023-03-04T07:21:45.079Z,6.20
2023-03-04T07:22:45.011Z,6.10
2023-03-04T07:23:45.028Z,5.80
2023-03-04T07:24:44.986Z,6.10
2023-03-04T07:25:44.985Z,6.80
2023-03-04T07:26:45.002Z,6.50
2023-03-04T07:27:44.984Z,5.90
2023-03-04T07:28:44.938Z,6.40
2023-03-04T07:29:44.949Z,6.20
2023-03-04T07:30:44.937Z,6.40
2023-03-04T07:31:44.993Z,6.30
2023-03-04T07:32:45.026Z,6.00
2023-03-04T07:33:44.892Z,5.90
2023-03-04T07:34:44.896Z,6.00
2023-03-04T07:35:44.926Z,6.00
2023-03-04T07:36:44.873Z,5.90
2023-03-04T07:37:44.829Z,5.70
2023-03-04T07:38:44.891Z,6.30
2023-03-04T07:39:44.833Z,6.30
2023-03-04T07:40:44.805Z,6.30
2023-03-04T07:41:44.799Z,5.70
2023-03-04T07:42:44.787Z,5.50
2023-03-04T07:43:44.772Z,6.40
2023-03-04T07:44:44.833Z,5.40
2023-03-04T07:45:44.900Z,5.20
2023-03-04T07:46:44.743Z,5.50
2023-03-04T07:47:44.950Z,6.50
2023-03-04T07:48:44.733Z,6.70
2023-03-04T07:49:44.725Z,6.80
2023-03-04T07:50:44.717Z,7.10
2023-03-04T07:51:44.708Z,8.00
2023-03-04T07:52:44.664Z,6.40
2023-03-04T07:53:44.696Z,6.00
2023-03-04T07:54:44.656Z,5.80
2023-03-04T07:55:44.687Z,6.10
2023-03-04T07:56:44.624Z,5.30
2023-03-04T07:57:44.629Z,5.60
2023-03-04T07:58:44.625Z,5.30
2023-03-04T07:59:44.579Z,5.10
2023-03-04T08:00:44.584Z,5.70
2023-03-04T08:01:45.626Z,5.90
2023-03-04T08:02:44.639Z,5.60
2023-03-04T08:03:44.685Z,5.40
2023-03-04T08:04:44.559Z,5.30
2023-03-04T08:05:44.529Z,5.50
2023-03-04T08:06:44.525Z,5.90
2023-03-04T08:07:44.516Z,6.50
2023-03-04T08:08:44.503Z,5.80
2023-03-04T08:09:44.487Z,5.40
2023-03-04T08:10:44.461Z,5.70
2023-03-04T08:11:44.461Z,5.10
2023-03-04T08:12:44.452Z,5.60
2023-03-04T08:13:44.454Z,5.70
2023-03-04T08:14:44.435Z,5.80
2023-03-04T08:15:44.431Z,5.00
2023-03-04T08:16:44.392Z,5.40
2023-03-04T08:17:44.382Z,5.10
2023-03-04T08:18:44.382Z,5.10
2023-03-04T08:19:44.368Z,4.90
2023-03-04T08:20:44.366Z,5.10
2023-03-04T08:21:44.374Z,5.40
2023-03-04T08:22:44.327Z,5.60
2023-03-04T08:23:44.353Z,5.30
2023-03-04T08:24:44.319Z,5.30
2023-03-04T08:25:44.297Z,5.50
2023-03-04T08:26:44.294Z,6.00
2023-03-04T08:27:44.300Z,5.10
2023-03-04T08:28:44.245Z,5.30
2023-03-04T08:29:44.513Z,5.10
2023-03-04T08:30:44.289Z,5.40
2023-03-04T08:31:45.394Z,5.40
2023-03-04T08:32:44.371Z,6.40
2023-03-04T08:33:44.201Z,5.30
2023-03-04T08:34:44.193Z,5.30
2023-03-04T08:35:44.252Z,5.50
2023-03-04T08:36:44.161Z,5.60
2023-03-04T08:37:44.162Z,6.10
2023-03-04T08:38:44.158Z,5.70
2023-03-04T08:39:44.117Z,7.80
2023-03-04T08:40:44.113Z,5.60
2023-03-04T08:41:44.137Z,5.70
2023-03-04T08:42:44.094Z,5.10
2023-03-04T08:43:44.230Z,6.90
2023-03-04T08:44:44.105Z,8.40
2023-03-04T08:45:44.057Z,5.30
2023-03-04T08:46:44.078Z,7.70
2023-03-04T08:47:44.037Z,32.50
2023-03-04T08:48:44.025Z,27.80
2023-03-04T08:49:44.018Z,27.00
2023-03-04T08:50:44.053Z,15.30
2023-03-04T08:51:44.030Z,20.40
2023-03-04T08:52:44.009Z,20.20
2023-03-04T08:53:44.005Z,8.20
2023-03-04T08:54:43.970Z,8.10
2023-03-04T08:55:43.949Z,4.90
2023-03-04T08:56:43.950Z,6.80
2023-03-04T08:57:43.944Z,5.50
2023-03-04T08:58:43.964Z,4.50
2023-03-04T08:59:43.909Z,9.20
2023-03-04T09:00:43.978Z,4.60
2023-03-04T09:01:43.966Z,5.90
2023-03-04T09:02:43.881Z,5.90
2023-03-04T09:03:43.887Z,8.30
2023-03-04T09:04:43.876Z,7.20
2023-03-04T09:05:43.907Z,17.40
2023-03-04T09:06:43.827Z,4.50
2023-03-04T09:07:43.811Z,8.20
2023-03-04T09:08:43.872Z,17.70
2023-03-04T09:09:43.781Z,18.80
2023-03-04T09:10:43.811Z,5.80
2023-03-04T09:11:43.761Z,5.30
2023-03-04T09:12:43.811Z,10.00
2023-03-04T09:13:43.790Z,16.30
2023-03-04T09:14:43.731Z,6.10
2023-03-04T09:15:43.794Z,12.50
2023-03-04T09:16:43.782Z,7.40
2023-03-04T09:17:43.710Z,3.70
2023-03-04T09:18:43.692Z,3.70
2023-03-04T09:19:43.693Z,5.70
2023-03-04T09:20:43.672Z,4.10
2023-03-04T09:21:43.682Z,7.60
2023-03-04T09:22:43.653Z,4.60
2023-03-04T09:23:43.649Z,4.20
2023-03-04T09:24:43.628Z,4.60
2023-03-04T09:25:43.664Z,4.70
2023-03-04T09:26:43.595Z,4.00
2023-03-04T09:27:43.643Z,4.10
2023-03-04T09:28:43.593Z,3.90
2023-03-04T09:29:43.568Z,3.50
2023-03-04T09:30:43.554Z,4.40
2023-03-04T09:31:43.617Z,3.30
2023-03-04T09:32:43.524Z,5.00
2023-03-04T09:33:43.550Z,4.50
2023-03-04T09:34:43.519Z,4.40
2023-03-04T09:35:43.614Z,4.80
2023-03-04T09:36:43.495Z,4.60
2023-03-04T09:37:43.491Z,4.30
2023-03-04T09:38:43.509Z,4.50
2023-03-04T09:39:43.457Z,3.50
2023-03-04T09:40:43.464Z,3.70
2023-03-04T09:41:43.435Z,3.10
2023-03-04T09:42:43.826Z,3.30
2023-03-04T09:43:43.436Z,3.80
2023-03-04T09:44:43.451Z,4.40
2023-03-04T09:45:43.396Z,4.00
2023-03-04T09:46:43.426Z,4.20
2023-03-04T09:47:43.367Z,4.90
2023-03-04T09:48:43.366Z,3.80
2023-03-04T09:49:43.348Z,4.00
2023-03-04T09:50:43.379Z,3.80
2023-03-04T09:51:43.338Z,4.00
2023-03-04T09:52:43.307Z,3.70
2023-03-04T09:53:43.297Z,4.40
2023-03-04T09:54:43.310Z,4.20
2023-03-04T09:55:43.294Z,4.00
2023-03-04T09:56:43.368Z,3.90
2023-03-04T09:57:43.308Z,4.00
2023-03-04T09:58:43.327Z,4.30
2023-03-04T09:59:43.236Z,4.30
2023-03-04T10:00:43.301Z,3.70
2023-03-04T10:01:43.238Z,3.90
2023-03-04T10:02:43.208Z,4.50
2023-03-04T10:03:43.262Z,3.80
2023-03-04T10:04:43.200Z,3.50
2023-03-04T10:05:43.189Z,4.00
2023-03-04T10:06:43.153Z,3.50
2023-03-04T10:07:43.161Z,3.70
2023-03-04T10:08:43.185Z,3.60
2023-03-04T10:09:43.118Z,3.50
2023-03-04T10:10:43.137Z,3.80
2023-03-04T10:11:43.093Z,3.80
2023-03-04T10:12:43.082Z,3.90
2023-03-04T10:13:43.122Z,3.80
2023-03-04T10:14:43.070Z,3.70
2023-03-04T10:15:43.039Z,3.90
2023-03-04T10:16:43.034Z,3.60
2023-03-04T10:17:43.090Z,4.00
2023-03-04T10:18:43.110Z,3.90
2023-03-04T10:19:43.041Z,3.60
2023-03-04T10:20:42.984Z,4.70
2023-03-04T10:21:42.980Z,4.80
2023-03-04T10:22:42.985Z,3.30
2023-03-04T10:23:42.979Z,3.90
2023-03-04T10:24:43.183Z,4.30
2023-03-04T10:25:42.949Z,4.20
2023-03-04T10:26:42.924Z,3.60
2023-03-04T10:27:42.920Z,4.50
2023-03-04T10:28:42.901Z,5.40
2023-03-04T10:29:42.936Z,4.70
2023-03-04T10:30:42.894Z,4.90
2023-03-04T10:31:42.925Z,4.10
2023-03-04T10:32:42.971Z,3.50
2023-03-04T10:33:42.900Z,3.60
2023-03-04T10:34:42.820Z,2.90
2023-03-04T10:35:42.877Z,3.50
2023-03-04T10:36:42.842Z,3.20
2023-03-04T10:37:42.773Z,3.50
2023-03-04T10:38:42.768Z,3.60
2023-03-04T10:39:42.766Z,3.40
2023-03-04T10:40:44.550Z,4.00
2023-03-04T10:41:42.832Z,3.50
2023-03-04T10:42:42.882Z,3.00
2023-03-04T10:43:42.762Z,3.10
2023-03-04T10:44:42.697Z,3.70
2023-03-04T10:45:42.750Z,3.50
2023-03-04T10:46:42.673Z,3.00
2023-03-04T10:47:42.685Z,3.60
2023-03-04T10:48:42.702Z,3.20
2023-03-04T10:49:42.686Z,2.80
2023-03-04T10:50:42.644Z,3.10
2023-03-04T10:51:42.635Z,3.60
2023-03-04T10:52:42.667Z,3.60
2023-03-04T10:53:42.599Z,2.80
2023-03-04T10:54:42.578Z,2.90
2023-03-04T10:55:42.593Z,2.50
2023-03-04T10:56:42.555Z,2.90
2023-03-04T10:57:42.549Z,3.30
2023-03-04T10:58:42.594Z,2.80
2023-03-04T10:59:42.541Z,3.10
2023-03-04T11:00:42.571Z,2.70
2023-03-04T11:01:42.503Z,2.60
2023-03-04T11:02:42.516Z,2.60
2023-03-04T11:03:42.498Z,2.80
2023-03-04T11:04:42.524Z,2.40
2023-03-04T11:05:42.499Z,2.50
2023-03-04T11:06:42.464Z,2.60
2023-03-04T11:07:54.577Z,2.30
2023-03-04T11:08:43.443Z,2.20
2023-03-04T11:09:42.537Z,2.60
2023-03-04T11:10:42.406Z,1.70
2023-03-04T11:11:42.390Z,2.30
2023-03-04T11:12:42.388Z,2.00
2023-03-04T11:13:42.375Z,3.00
2023-03-04T11:14:42.353Z,2.20
2023-03-04T11:15:42.504Z,2.30
2023-03-04T11:16:42.357Z,2.10
2023-03-04T11:17:42.333Z,2.10
2023-03-04T11:18:42.366Z,2.30
2023-03-04T11:19:42.288Z,2.20
2023-03-04T11:20:42.291Z,2.10
2023-03-04T11:21:42.293Z,3.10
2023-03-04T11:22:42.299Z,2.80
2023-03-04T11:23:42.287Z,3.30
2023-03-04T11:24:42.242Z,2.10
2023-03-04T11:25:42.222Z,2.10
2023-03-04T11:26:42.248Z,2.40
2023-03-04T11:27:42.200Z,1.90
2023-03-04T11:28:42.191Z,2.10
2023-03-04T11:29:42.179Z,2.00
2023-03-04T11:30:42.182Z,1.90
2023-03-04T11:31:42.161Z,2.00
2023-03-04T11:32:42.202Z,2.60
2023-03-04T11:33:42.163Z,2.20
2023-03-04T11:34:42.133Z,1.90
2023-03-04T11:35:42.158Z,2.00
2023-03-04T11:36:42.114Z,2.10
2023-03-04T11:37:42.106Z,2.00
2023-03-04T11:38:42.128Z,2.50
2023-03-04T11:39:42.074Z,2.20
2023-03-04T11:40:42.068Z,3.10
2023-03-04T11:41:42.064Z,1.90
2023-03-04T11:42:42.059Z,1.80
2023-03-04T11:43:42.048Z,2.30
2023-03-04T11:44:42.072Z,1.60
2023-03-04T11:45:42.048Z,1.70
2023-03-04T11:46:42.033Z,1.90
2023-03-04T11:47:42.002Z,2.00
2023-03-04T11:48:41.982Z,2.00
2023-03-04T11:49:42.060Z,1.90
2023-03-04T11:50:41.974Z,1.70
2023-03-04T11:51:41.957Z,1.90
2023-03-04T11:52:41.975Z,1.70
2023-03-04T11:53:41.954Z,1.70
2023-03-04T11:54:41.926Z,1.60
2023-03-04T11:55:41.952Z,1.80
2023-03-04T11:56:41.958Z,1.80
2023-03-04T11:57:41.896Z,1.50
2023-03-04T11:58:41.873Z,1.90
2023-03-04T11:59:41.877Z,2.10
2023-03-04T12:00:41.861Z,2.70
2023-03-04T12:01:41.859Z,1.50
2023-03-04T12:02:41.834Z,1.20
2023-03-04T12:03:41.854Z,1.60
2023-03-04T12:04:41.860Z,1.60
2023-03-04T12:05:41.876Z,1.30
2023-03-04T12:06:41.814Z,1.40
2023-03-04T12:07:41.804Z,1.20
2023-03-04T12:08:41.758Z,1.40
2023-03-04T12:09:41.782Z,1.40
2023-03-04T12:10:41.746Z,1.20
2023-03-04T12:11:41.736Z,1.20
2023-03-04T12:12:41.749Z,1.50
2023-03-04T12:13:41.702Z,2.00
2023-03-04T12:14:41.712Z,1.30
2023-03-04T12:15:41.749Z,1.70
2023-03-04T12:16:41.664Z,1.50
2023-03-04T12:17:41.705Z,1.30
2023-03-04T12:18:41.706Z,1.80
2023-03-04T12:19:41.638Z,1.30
2023-03-04T12:20:41.633Z,1.60
2023-03-04T12:21:41.616Z,1.60
2023-03-04T12:22:41.639Z,1.80
2023-03-04T12:23:41.590Z,1.10
2023-03-04T12:24:41.642Z,1.50
2023-03-04T12:25:41.583Z,1.40
2023-03-04T12:26:41.576Z,1.30
2023-03-04T12:27:41.583Z,1.30
2023-03-04T12:28:41.570Z,0.90
2023-03-04T12:29:41.547Z,1.20
2023-03-04T12:30:41.517Z,1.30
2023-03-04T12:31:41.536Z,1.20
2023-03-04T12:32:41.490Z,1.40
2023-03-04T12:33:41.542Z,1.30
2023-03-04T12:34:41.467Z,1.40
2023-03-04T12:35:41.617Z,1.40
2023-03-04T12:36:41.455Z,1.40
2023-03-04T12:37:41.437Z,1.70
2023-03-04T12:38:41.421Z,1.20
2023-03-04T12:39:41.422Z,1.40
2023-03-04T12:40:41.409Z,1.20
2023-03-04T12:41:41.440Z,1.20
2023-03-04T12:42:41.383Z,1.20
2023-03-04T12:43:41.378Z,1.40
2023-03-04T12:44:41.373Z,1.40
2023-03-04T12:45:41.349Z,1.00
2023-03-04T12:46:41.362Z,1.40
2023-03-04T12:47:41.346Z,1.20
2023-03-04T12:48:41.321Z,1.50
2023-03-04T12:49:41.322Z,1.30
2023-03-04T12:50:41.281Z,1.30
2023-03-04T12:51:41.272Z,1.30
2023-03-04T12:52:41.251Z,1.30
2023-03-04T12:53:41.290Z,1.30
2023-03-04T12:54:41.238Z,1.60
2023-03-04T12:55:41.252Z,1.50
2023-03-04T12:56:41.227Z,1.30
2023-03-04T12:57:41.206Z,1.30
2023-03-04T12:58:41.214Z,1.40
2023-03-04T12:59:41.256Z,1.60
2023-03-04T13:00:41.173Z,1.50
2023-03-04T13:01:41.170Z,1.00
2023-03-04T13:02:41.209Z,1.20
2023-03-04T13:03:41.204Z,1.30
2023-03-04T13:04:41.155Z,1.10
2023-03-04T13:05:41.113Z,1.10
2023-03-04T13:06:41.096Z,1.20
2023-03-04T13:07:41.093Z,1.40
2023-03-04T13:08:41.093Z,1.10
2023-03-04T13:09:41.063Z,1.30
2023-03-04T13:10:41.100Z,1.10
2023-03-04T13:11:41.048Z,1.30
2023-03-04T13:12:41.035Z,1.20
2023-03-04T13:13:41.021Z,1.10